Time;durP1;ratioP1;P1;durP2;ratioP2;P2;SDS_P1;SDS_P2;PMS_P1;PMS_P2;Temp;Humidity;BMP_temperature;BMP_pressure;BME280_temperature;BME280_humidity;BME280_pressure;Samples;Min_cycle;Max_cycle;Signal;HPM_P1;HPM_P2
2023/06/17 00:02:05;;;;;;;18.80;17.00;;;;;;;17.05;82.05;100082.56;102411;280;95945;-60
2023/06/17 00:04:37;;;;;;;19.20;17.40;;;;;;;17.03;82.28;100082.34;102495;280;97347;-60
2023/06/17 00:07:09;;;;;;;19.30;17.50;;;;;;;16.99;82.35;100079.92;102417;280;118395;-57
2023/06/17 00:09:47;;;;;;;17.70;16.10;;;;;;;17.02;82.41;100077.54;102453;280;103851;-57
2023/06/17 00:12:24;;;;;;;19.40;17.70;;;;;;;17.04;82.55;100073.46;102423;280;114637;-57
2023/06/17 00:15:02;;;;;;;20.50;18.30;;;;;;;17.04;82.48;100077.69;102364;280;95880;-57
2023/06/17 00:17:34;;;;;;;19.40;17.50;;;;;;;17.04;82.76;100073.20;102393;280;95640;-60
2023/06/17 00:20:11;;;;;;;18.80;17.10;;;;;;;17.03;82.61;100070.58;102375;280;121093;-59
2023/06/17 00:22:53;;;;;;;18.30;16.60;;;;;;;17.01;82.71;100071.44;102388;280;106148;-60
2023/06/17 00:25:31;;;;;;;19.40;17.40;;;;;;;17.01;82.82;100070.23;102343;280;114816;-58
2023/06/17 00:28:05;;;;;;;18.20;16.30;;;;;;;16.98;83.07;100069.36;102208;281;95267;-60
2023/06/17 00:30:40;;;;;;;;;;;;;;;16.98;82.91;100069.50;102424;280;97710;-61
2023/06/17 00:33:16;;;;;;;16.80;15.20;;;;;;;16.94;83.05;100064.75;102377;280;121139;-61
2023/06/17 00:35:57;;;;;;;16.60;14.80;;;;;;;16.88;82.88;100067.27;102414;280;106049;-58
2023/06/17 00:38:35;;;;;;;15.50;14.10;;;;;;;16.83;83.06;100061.31;102398;280;113862;-58
2023/06/17 00:41:11;;;;;;;15.30;13.90;;;;;;;16.74;83.22;100063.73;102417;280;96349;-57
2023/06/17 00:43:51;;;;;;;15.60;14.10;;;;;;;16.72;83.18;100060.64;102458;280;98286;-57
2023/06/17 00:46:36;;;;;;;14.30;13.00;;;;;;;16.71;83.31;100056.55;102408;280;120680;-59
2023/06/17 00:49:12;;;;;;;14.90;13.60;;;;;;;16.69;83.31;100058.05;102455;280;105129;-61
2023/06/17 00:51:49;;;;;;;14.00;12.50;;;;;;;16.68;83.34;100061.45;102451;280;113427;-58
2023/06/17 00:54:27;;;;;;;14.00;12.80;;;;;;;16.68;83.37;100059.70;102446;280;97112;-58
2023/06/17 00:57:02;;;;;;;15.90;13.00;;;;;;;16.60;83.43;100058.16;102457;280;97407;-62
2023/06/17 00:59:36;;;;;;;13.60;12.40;;;;;;;16.53;83.47;100057.54;102399;280;121093;-62
2023/06/17 01:02:13;;;;;;;13.40;12.10;;;;;;;16.49;83.56;100058.48;102430;280;105889;-58
2023/06/17 01:04:48;;;;;;;14.50;12.20;;;;;;;16.50;83.58;100054.79;102343;280;114615;-59
2023/06/17 01:07:40;;;;;;;15.50;13.50;;;;;;;16.48;83.55;100053.48;102397;269;96827;-57
2023/06/17 01:10:22;;;;;;;15.00;13.20;;;;;;;16.46;83.66;100053.33;102406;280;97811;-60
2023/06/17 01:12:56;;;;;;;14.50;13.00;;;;;;;16.42;83.59;100049.80;102279;280;120838;-61
2023/06/17 01:15:33;;;;;;;13.10;11.60;;;;;;;16.39;83.56;100051.45;102380;280;105366;-60
2023/06/17 01:18:08;;;;;;;12.90;11.60;;;;;;;16.32;83.52;100048.12;102414;280;114464;-60
2023/06/17 01:20:43;;;;;;;;;;;;;;;16.31;83.28;100048.63;102257;280;96710;-60
2023/06/17 01:23:23;;;;;;;13.40;12.00;;;;;;;16.26;83.59;100051.12;102390;268;98237;-60
2023/06/17 01:26:03;;;;;;;13.20;11.80;;;;;;;16.25;83.56;100055.03;102445;280;119046;-60
2023/06/17 01:28:40;;;;;;;12.80;11.50;;;;;;;16.24;83.53;100053.75;102474;280;106395;-60
2023/06/17 01:31:18;;;;;;;12.80;10.10;;;;;;;16.23;83.44;100057.27;102462;280;114871;-61
2023/06/17 01:33:56;;;;;;;11.80;10.70;;;;;;;16.28;83.27;100059.96;102423;280;95542;-62
2023/06/17 01:36:39;;;;;;;11.20;10.10;;;;;;;16.26;83.25;100056.69;102495;280;97443;-60
2023/06/17 01:39:20;;;;;;;11.80;10.60;;;;;;;16.25;83.21;100058.09;102428;280;120076;-61
2023/06/17 01:42:04;;;;;;;11.60;10.50;;;;;;;16.25;83.20;100057.16;102444;280;106421;-61
2023/06/17 01:44:37;;;;;;;11.60;10.10;;;;;;;16.24;82.90;100056.77;102346;280;115248;-62
2023/06/17 01:47:10;;;;;;;12.40;10.50;;;;;;;16.17;82.82;100059.02;102384;280;96690;-61
2023/06/17 01:49:45;;;;;;;10.70;9.60;;;;;;;16.12;82.88;100059.34;102421;280;97863;-61
2023/06/17 01:52:27;;;;;;;13.50;11.30;;;;;;;16.13;82.70;100060.17;102394;280;120725;-58
2023/06/17 01:55:06;;;;;;;12.00;9.80;;;;;;;16.05;82.97;100056.03;102379;280;105715;-58
2023/06/17 01:57:48;;;;;;;12.10;10.00;;;;;;;16.03;82.91;100053.15;102375;280;114062;-61
2023/06/17 02:00:21;;;;;;;9.80;8.90;;;;;;;16.02;82.80;100046.47;102396;280;97450;-58
2023/06/17 02:02:54;;;;;;;10.50;9.10;;;;;;;16.03;82.89;100047.70;102411;280;98627;-58
2023/06/17 02:05:37;;;;;;;9.10;8.20;;;;;;;16.04;82.70;100043.42;102386;280;121047;-58
2023/06/17 02:08:20;;;;;;;8.50;7.70;;;;;;;15.99;82.84;100045.85;102447;280;105608;-58
2023/06/17 02:11:05;;;;;;;8.80;7.90;;;;;;;15.92;83.16;100040.17;102484;280;114912;-57
2023/06/17 02:13:42;;;;;;;9.80;8.50;;;;;;;15.87;83.11;100032.14;102443;280;96271;-57
2023/06/17 02:16:17;;;;;;;8.70;7.80;;;;;;;15.86;83.10;100031.15;102464;280;96706;-57
2023/06/17 02:18:52;;;;;;;9.20;8.30;;;;;;;15.82;83.22;100026.69;102412;280;120422;-57
2023/06/17 02:21:26;;;;;;;;;;;;;;;15.80;83.12;100025.75;102478;280;105232;-61
2023/06/17 02:24:08;;;;;;;8.00;7.30;;;;;;;15.76;83.47;100025.86;102434;280;113945;-61
2023/06/17 02:26:49;;;;;;;9.10;8.20;;;;;;;15.74;83.48;100027.11;102439;280;96927;-60
2023/06/17 02:29:30;;;;;;;8.40;7.50;;;;;;;15.72;83.44;100029.19;102355;300;97187;-60
2023/06/17 02:32:08;;;;;;;9.40;8.30;;;;;;;15.71;83.54;100023.05;102392;280;120891;-56
2023/06/17 02:34:43;;;;;;;8.90;8.10;;;;;;;15.71;83.46;100022.67;102375;280;106003;-57
2023/06/17 02:37:21;;;;;;;8.30;7.60;;;;;;;15.70;83.65;100022.70;102356;280;114619;-59
2023/06/17 02:39:59;;;;;;;10.00;8.20;;;;;;;15.69;83.73;100017.30;102218;282;96080;-60
2023/06/17 02:42:37;;;;;;;8.30;7.50;;;;;;;15.69;83.79;100015.41;102433;280;96283;-60
2023/06/17 02:45:13;;;;;;;8.30;7.60;;;;;;;15.67;83.61;100013.64;102384;280;121191;-60
2023/06/17 02:47:50;;;;;;;8.10;7.30;;;;;;;15.63;83.90;100013.36;102467;280;105274;-59
2023/06/17 02:50:32;;;;;;;8.50;7.70;;;;;;;15.65;83.84;100007.26;102467;280;114800;-57
2023/06/17 02:53:08;;;;;;;7.90;7.20;;;;;;;15.63;83.95;100007.44;102424;280;95812;-56
2023/06/17 02:55:49;;;;;;;8.40;7.60;;;;;;;15.63;84.12;100003.73;102455;280;97618;-57
2023/06/17 02:58:34;;;;;;;8.90;7.40;;;;;;;15.57;84.05;100000.24;102416;280;121638;-57
2023/06/17 03:01:11;;;;;;;7.80;7.10;;;;;;;15.54;84.04;100004.61;102417;280;104400;-57
2023/06/17 03:03:46;;;;;;;7.80;7.10;;;;;;;15.57;84.20;100002.52;102404;280;115024;-57
2023/06/17 03:06:23;;;;;;;8.20;7.40;;;;;;;15.58;84.35;100001.80;102427;280;96849;-57
2023/06/17 03:09:01;;;;;;;8.30;7.50;;;;;;;15.63;84.46;100006.98;102419;280;97522;-57
2023/06/17 03:11:39;;;;;;;8.00;7.30;;;;;;;15.63;84.60;100005.31;102392;280;119916;-56
2023/06/17 03:14:19;;;;;;;8.80;8.00;;;;;;;15.64;84.73;100005.80;102413;280;105070;-56
2023/06/17 03:16:57;;;;;;;9.90;8.90;;;;;;;15.66;84.86;100004.06;102380;280;115463;-60
2023/06/17 03:19:36;;;;;;;9.30;8.40;;;;;;;15.65;84.89;100007.58;101823;281;97606;-61
2023/06/17 03:22:16;;;;;;;10.20;9.00;;;;;;;15.67;84.98;100011.50;102425;280;96941;-58
2023/06/17 03:24:56;;;;;;;9.80;8.80;;;;;;;15.69;85.14;100009.16;102381;280;121245;-58
2023/06/17 03:27:31;;;;;;;9.50;8.50;;;;;;;15.72;85.05;100007.89;102439;280;105683;-57
2023/06/17 03:30:08;;;;;;;10.00;9.10;;;;;;;15.74;85.18;100006.63;102352;280;114276;-57
2023/06/17 03:32:45;;;;;;;10.50;9.50;;;;;;;15.76;85.36;100012.95;102347;280;96795;-57
2023/06/17 03:35:16;;;;;;;10.30;9.30;;;;;;;15.79;85.23;100011.51;102375;280;97260;-60
2023/06/17 03:37:51;;;;;;;10.80;9.70;;;;;;;15.80;85.39;100015.95;102415;280;120554;-59
2023/06/17 03:40:33;;;;;;;10.30;9.30;;;;;;;15.78;85.44;100016.82;102470;280;105564;-59
2023/06/17 03:43:23;;;;;;;9.80;8.90;;;;;;;15.82;85.57;100017.80;102453;280;114655;-60
2023/06/17 03:46:04;;;;;;;9.60;8.70;;;;;;;15.84;85.65;100022.55;102427;280;97272;-57
2023/06/17 03:48:40;;;;;;;10.90;9.80;;;;;;;15.78;85.60;100029.69;102452;268;95836;-57
2023/06/17 03:51:16;;;;;;;9.90;8.80;;;;;;;15.77;85.51;100027.73;102442;280;118979;-57
2023/06/17 03:53:48;;;;;;;13.00;10.60;;;;;;;15.80;85.77;100025.96;102395;280;105827;-57
2023/06/17 03:56:30;;;;;;;11.10;10.10;;;;;;;15.85;85.86;100028.00;102389;280;114606;-60
2023/06/17 03:59:06;;;;;;;13.20;11.20;;;;;;;15.86;85.98;100020.56;102386;280;96236;-60
2023/06/17 04:01:45;;;;;;;13.10;11.80;;;;;;;15.92;86.02;100019.70;102423;280;96995;-60
2023/06/17 04:04:20;;;;;;;13.60;12.40;;;;;;;15.90;85.98;100017.84;102356;280;120312;-60
2023/06/17 04:07:02;;;;;;;12.60;11.50;;;;;;;15.92;86.11;100018.87;102406;280;105471;-57
2023/06/17 04:09:39;;;;;;;12.50;11.40;;;;;;;15.99;86.16;100015.02;102375;280;112718;-57
2023/06/17 04:12:13;;;;;;;12.60;11.50;;;;;;;16.00;86.15;100011.45;102405;280;96299;-57
2023/06/17 04:14:48;;;;;;;13.10;11.40;;;;;;;16.05;86.13;100006.05;102425;280;97469;-56
2023/06/17 04:17:28;;;;;;;12.60;11.40;;;;;;;16.09;86.23;100005.29;102438;280;121142;-56
2023/06/17 04:20:10;;;;;;;12.60;11.40;;;;;;;16.08;86.45;100005.13;102465;280;104326;-56
2023/06/17 04:22:44;;;;;;;12.90;11.70;;;;;;;16.09;86.17;100005.23;102485;280;115120;-56
2023/06/17 04:25:20;;;;;;;12.00;11.00;;;;;;;16.14;86.20;100002.67;102509;280;96372;-56
2023/06/17 04:27:58;;;;;;;12.70;11.40;;;;;;;16.20;86.11;99999.19;102484;280;97800;-56
2023/06/17 04:30:37;;;;;;;11.80;10.70;;;;;;;16.26;86.26;100000.59;102504;280;120992;-56
2023/06/17 04:33:15;;;;;;;12.50;11.40;;;;;;;16.33;86.75;99999.11;102463;280;105550;-56
2023/06/17 04:35:53;;;;;;;13.20;11.60;;;;;;;16.48;86.64;99999.77;102398;280;115212;-57
2023/06/17 04:38:30;;;;;;;10.90;10.00;;;;;;;16.57;86.68;99999.73;102398;279;96423;-56
2023/06/17 04:41:12;;;;;;;12.10;11.00;;;;;;;16.71;86.50;99998.08;102433;280;98351;-57
2023/06/17 04:43:48;;;;;;;10.30;9.40;;;;;;;16.82;86.37;99997.02;102409;280;121296;-57
2023/06/17 04:46:30;;;;;;;10.70;9.70;;;;;;;16.89;86.09;100001.80;102421;280;105961;-57
2023/06/17 04:49:07;;;;;;;10.60;9.70;;;;;;;16.97;85.98;100001.77;102394;280;113372;-58
2023/06/17 04:51:44;;;;;;;10.20;9.30;;;;;;;17.06;85.79;100000.35;102392;280;96105;-57
2023/06/17 04:54:19;;;;;;;10.50;9.60;;;;;;;17.19;85.65;99999.98;102411;268;96538;-56
2023/06/17 04:56:57;;;;;;;10.60;9.70;;;;;;;17.22;85.26;100001.23;102439;280;120359;-57
2023/06/17 04:59:38;;;;;;;10.90;9.90;;;;;;;17.33;85.24;99999.00;102438;280;106197;-56
2023/06/17 05:02:17;;;;;;;11.70;10.60;;;;;;;17.40;85.31;99999.63;102412;280;114046;-57
2023/06/17 05:04:56;;;;;;;11.40;10.40;;;;;;;17.49;85.00;99998.00;102441;280;96697;-56
2023/06/17 05:07:35;;;;;;;10.40;9.40;;;;;;;17.57;84.88;99999.23;102439;280;97542;-59
2023/06/17 05:10:10;;;;;;;10.40;9.40;;;;;;;17.60;84.74;99997.56;102268;280;121005;-58
2023/06/17 05:12:46;;;;;;;10.20;9.30;;;;;;;17.59;84.40;100004.46;102457;280;105404;-57
2023/06/17 05:15:19;;;;;;;9.70;8.80;;;;;;;17.75;84.24;100004.05;102429;280;112540;-57
2023/06/17 05:17:52;;;;;;;10.40;9.30;;;;;;;17.94;84.15;100007.24;102398;280;95156;-57
2023/06/17 05:20:29;;;;;;;10.10;9.10;;;;;;;18.13;84.12;100008.88;102458;280;96581;-56
2023/06/17 05:23:02;;;;;;;9.70;8.90;;;;;;;18.46;83.92;100012.60;102400;280;120247;-57
2023/06/17 05:25:36;;;;;;;9.40;8.50;;;;;;;18.79;83.84;100011.58;102433;280;105577;-57
2023/06/17 05:28:10;;;;;;;10.00;9.00;;;;;;;18.99;83.09;100011.80;102238;280;114399;-57
2023/06/17 05:30:54;;;;;;;9.80;8.90;;;;;;;19.07;82.97;100011.80;102430;280;94136;-59
2023/06/17 05:33:34;;;;;;;9.60;8.80;;;;;;;19.10;82.54;100010.85;102369;280;98408;-60
2023/06/17 05:36:07;;;;;;;10.10;9.20;;;;;;;19.16;82.07;100015.95;102411;268;119679;-57
2023/06/17 05:38:46;;;;;;;9.70;8.80;;;;;;;19.15;81.84;100011.35;102402;280;105040;-56
2023/06/17 05:41:22;;;;;;;9.20;8.30;;;;;;;19.19;82.01;100015.12;102439;280;113542;-60
2023/06/17 05:44:02;;;;;;;10.60;8.60;;;;;;;19.28;81.75;100014.46;102425;280;96745;-60
2023/06/17 05:46:38;;;;;;;9.80;8.90;;;;;;;19.49;81.68;100015.40;102482;280;97875;-60
2023/06/17 05:49:11;;;;;;;9.60;8.70;;;;;;;19.78;81.59;100015.30;102412;280;119430;-60
2023/06/17 05:51:51;;;;;;;9.30;8.50;;;;;;;19.96;80.75;100014.16;102519;280;106301;-59
2023/06/17 05:54:24;;;;;;;9.50;8.60;;;;;;;20.25;80.43;100012.95;102418;280;114929;-59
2023/06/17 05:56:58;;;;;;;9.40;8.60;;;;;;;20.75;79.94;100009.15;102458;280;94225;-56
2023/06/17 06:03:29;;;;;;;9.90;9.00;;;;;;;22.26;77.86;100007.81;102576;278;119388;-56
2023/06/17 06:06:06;;;;;;;9.60;8.80;;;;;;;22.22;76.76;100006.05;102518;278;105723;-57
2023/06/17 06:08:41;;;;;;;9.30;8.60;;;;;;;22.23;76.34;100003.41;102529;278;114687;-59
2023/06/17 06:11:15;;;;;;;9.80;8.90;;;;;;;22.17;75.55;100009.95;102536;278;92969;-66
2023/06/17 06:13:48;;;;;;;8.70;8.00;;;;;;;22.18;74.49;100011.35;102424;279;98607;-57
2023/06/17 06:16:23;;;;;;;9.20;8.40;;;;;;;22.16;73.73;100014.86;102492;278;120395;-57
2023/06/17 06:18:57;;;;;;;9.20;8.40;;;;;;;22.31;73.45;100015.20;102556;278;105934;-57
2023/06/17 06:21:29;;;;;;;9.00;8.20;;;;;;;22.42;73.28;100016.17;102536;278;114556;-56
2023/06/17 06:24:06;;;;;;;9.80;9.00;;;;;;;22.99;73.34;100015.55;102438;279;96253;-58
2023/06/17 06:26:42;;;;;;;8.20;7.50;;;;;;;24.30;72.23;100016.95;102544;278;96478;-58
2023/06/17 06:29:20;;;;;;;7.90;7.20;;;;;;;25.42;69.35;100015.39;102641;278;120602;-57
2023/06/17 06:32:03;;;;;;;8.70;7.90;;;;;;;25.58;67.22;100016.80;102618;278;104655;-61
2023/06/17 06:34:38;;;;;;;7.70;7.00;;;;;;;25.28;65.86;100016.51;102638;278;112301;-60
2023/06/17 06:37:16;;;;;;;7.20;6.60;;;;;;;24.95;65.14;100021.52;102577;278;94177;-60
2023/06/17 06:39:50;;;;;;;7.30;6.70;;;;;;;24.68;64.53;100023.23;102577;278;97523;-60
2023/06/17 06:42:32;;;;;;;7.70;7.00;;;;;;;24.53;64.34;100024.62;102495;278;121228;-60
2023/06/17 06:45:10;;;;;;;7.20;6.60;;;;;;;24.71;64.04;100021.36;102511;278;105021;-60
2023/06/17 06:47:50;;;;;;;7.10;6.60;;;;;;;25.39;63.43;100021.79;102556;278;113000;-57
2023/06/17 06:50:22;;;;;;;6.70;6.10;;;;;;;25.91;61.97;100021.59;102356;280;93563;-57
2023/06/17 06:53:05;;;;;;;7.20;6.60;;;;;;;25.94;61.84;100023.38;102524;278;96885;-59
2023/06/17 06:55:41;;;;;;;7.10;6.50;;;;;;;25.89;61.27;100021.63;102505;278;121039;-61
2023/06/17 06:58:22;;;;;;;7.00;6.40;;;;;;;25.92;60.44;100011.17;102425;278;106923;-56
2023/06/17 07:01:05;;;;;;;5.50;5.10;;;;;;;26.11;60.38;100009.96;102500;278;115005;-57
2023/06/17 07:03:41;;;;;;;6.10;5.60;;;;;;;26.23;59.83;100005.23;102569;278;94608;-58
2023/06/17 07:06:16;;;;;;;5.70;5.20;;;;;;;26.47;59.86;100006.45;102542;278;97681;-57
2023/06/17 07:08:52;;;;;;;5.60;5.10;;;;;;;26.98;58.96;100005.17;102570;278;121239;-56
2023/06/17 07:11:26;;;;;;;5.50;5.10;;;;;;;27.37;57.24;100005.39;102550;278;106267;-57
2023/06/17 07:14:00;;;;;;;5.70;5.20;;;;;;;27.97;56.30;100008.02;102533;278;114241;-64
2023/06/17 07:16:35;;;;;;;5.80;5.30;;;;;;;28.38;55.80;100002.54;102379;279;95631;-68
2023/06/17 07:19:14;;;;;;;5.70;5.20;;;;;;;28.73;55.20;100005.04;102587;278;98344;-65
2023/06/17 07:21:50;;;;;;;5.40;5.00;;;;;;;29.04;54.75;99999.96;102541;278;121609;-67
2023/06/17 07:24:32;;;;;;;5.10;4.70;;;;;;;28.92;52.34;100000.79;102565;278;105842;-64
2023/06/17 07:27:09;;;;;;;5.20;4.80;;;;;;;28.80;52.66;100008.09;102534;278;114831;-64
2023/06/17 07:29:41;;;;;;;5.10;4.60;;;;;;;29.26;52.89;100006.77;102521;278;93053;-68
2023/06/17 07:32:20;;;;;;;5.30;4.80;;;;;;;29.81;51.70;100011.86;102529;278;96946;-68
2023/06/17 07:34:53;;;;;;;5.10;4.60;;;;;;;29.09;51.62;100015.89;102550;278;119621;-68
2023/06/17 07:37:29;;;;;;;5.50;5.00;;;;;;;28.33;52.14;100013.70;102441;279;104902;-66
2023/06/17 07:40:10;;;;;;;5.70;5.20;;;;;;;27.45;52.79;100013.16;102533;278;115013;-63
2023/06/17 07:42:45;;;;;;;5.70;5.30;;;;;;;26.77;53.50;100009.95;102522;278;93996;-64
2023/06/17 07:45:18;;;;;;;5.90;5.40;;;;;;;26.23;53.73;100007.48;102515;278;97129;-65
2023/06/17 07:47:54;;;;;;;6.20;5.70;;;;;;;25.79;54.50;100010.98;102447;280;121437;-60
2023/06/17 07:50:29;;;;;;;6.50;5.90;;;;;;;25.68;55.07;100004.99;102571;278;105694;-60
2023/06/17 07:53:05;;;;;;;6.70;6.10;;;;;;;26.32;55.32;100000.75;102591;278;113519;-57
2023/06/17 07:55:46;;;;;;;6.00;5.50;;;;;;;27.16;54.65;99997.50;102600;278;92466;-57
2023/06/17 07:58:21;;;;;;;6.50;6.00;;;;;;;27.72;53.99;100001.66;102591;278;96818;-57
2023/06/17 08:00:55;;;;;;;6.10;5.60;;;;;;;27.87;53.52;99997.23;102589;278;119872;-64
2023/06/17 08:03:30;;;;;;;5.50;5.10;;;;;;;27.88;52.80;99991.95;102566;278;104334;-63
2023/06/17 08:06:01;;;;;;;5.60;5.10;;;;;;;28.10;52.09;99989.05;102538;278;113238;-62
2023/06/17 08:08:33;;;;;;;5.40;5.00;;;;;;;28.41;51.54;99985.85;102542;278;94038;-65
2023/06/17 08:11:10;;;;;;;5.40;4.90;;;;;;;28.94;50.72;99987.27;102400;278;97620;-62
2023/06/17 08:13:45;;;;;;;5.20;4.80;;;;;;;30.15;50.20;99985.79;102553;278;120031;-62
2023/06/17 08:16:19;;;;;;;4.60;4.20;;;;;;;31.14;48.66;99980.98;102504;278;104900;-63
2023/06/17 08:18:55;;;;;;;4.60;4.20;;;;;;;32.14;46.53;99982.02;102553;278;114140;-66
2023/06/17 08:21:27;;;;;;;4.80;4.40;;;;;;;32.35;44.72;99980.37;102545;278;94415;-66
2023/06/17 08:23:58;;;;;;;4.80;4.40;;;;;;;32.27;43.02;99977.20;102578;278;97079;-66
2023/06/17 08:26:38;;;;;;;4.60;4.20;;;;;;;32.02;43.54;99971.17;102522;278;121367;-66
2023/06/17 08:29:13;;;;;;;4.50;4.20;;;;;;;31.59;43.00;99970.88;102603;278;104794;-65
2023/06/17 08:31:53;;;;;;;4.80;4.40;;;;;;;31.34;43.57;99970.83;102544;278;112996;-64
2023/06/17 08:34:34;;;;;;;4.60;4.10;;;;;;;30.98;43.33;99972.23;102558;278;94374;-62
2023/06/17 08:37:06;;;;;;;4.30;3.90;;;;;;;30.71;44.60;99966.78;102548;278;96535;-62
2023/06/17 08:39:42;;;;;;;4.30;4.00;;;;;;;31.42;44.09;99966.95;102637;278;119434;-63
2023/06/17 08:42:14;;;;;;;4.70;4.30;;;;;;;31.46;43.29;99960.63;102604;278;106623;-63
2023/06/17 08:44:49;;;;;;;4.00;3.70;;;;;;;30.82;42.70;99961.98;102610;278;115234;-64
2023/06/17 08:47:28;;;;;;;4.50;4.10;;;;;;;30.32;42.85;99962.20;102585;278;94059;-63
2023/06/17 08:50:02;;;;;;;5.10;4.50;;;;;;;30.34;43.31;99961.75;102615;278;97860;-63
2023/06/17 08:52:38;;;;;;;4.30;4.00;;;;;;;30.43;42.78;99958.89;102544;279;120602;-63
2023/06/17 08:55:10;;;;;;;5.00;4.50;;;;;;;30.44;42.79;99957.54;102371;279;107173;-62
2023/06/17 08:57:47;;;;;;;4.40;3.80;;;;;;;30.75;42.63;99956.86;102567;278;115455;-63
2023/06/17 09:00:22;;;;;;;4.60;4.20;;;;;;;30.75;42.07;99953.84;102552;278;94910;-64
2023/06/17 09:02:57;;;;;;;4.70;4.30;;;;;;;30.61;41.94;99952.87;102598;278;97956;-64
2023/06/17 09:05:37;;;;;;;5.00;4.50;;;;;;;30.41;41.46;99947.05;102508;278;122061;-65
2023/06/17 09:08:14;;;;;;;4.80;4.40;;;;;;;30.08;41.23;99950.59;102563;278;105908;-65
2023/06/17 09:10:49;;;;;;;4.90;4.50;;;;;;;29.99;41.53;99950.02;102524;278;114862;-65
2023/06/17 09:13:21;;;;;;;4.50;4.10;;;;;;;29.58;41.93;99952.13;102408;280;94344;-65
2023/06/17 09:15:57;;;;;;;5.00;4.60;;;;;;;29.52;42.63;99947.86;102599;278;95740;-65
2023/06/17 09:18:36;;;;;;;5.20;4.80;;;;;;;29.17;42.69;99949.84;102606;278;119838;-65
2023/06/17 09:21:17;;;;;;;5.00;4.50;;;;;;;28.71;43.38;99952.20;102605;278;105209;-65
2023/06/17 09:23:57;;;;;;;5.30;4.80;;;;;;;28.57;44.16;99957.66;102550;278;113105;-63
2023/06/17 09:26:31;;;;;;;4.90;4.50;;;;;;;28.56;43.86;99954.71;102523;278;92161;-63
2023/06/17 09:29:04;;;;;;;4.70;4.30;;;;;;;28.57;43.84;99951.05;102631;278;97352;-65
2023/06/17 09:31:50;;;;;;;4.70;4.40;;;;;;;28.91;44.02;99948.91;102550;278;120479;-65
2023/06/17 09:34:26;;;;;;;4.90;4.50;;;;;;;28.99;43.25;99947.63;102626;278;105607;-64
2023/06/17 09:37:06;;;;;;;4.80;4.40;;;;;;;28.80;43.38;99950.30;102621;278;114402;-64
2023/06/17 09:39:46;;;;;;;5.00;4.60;;;;;;;28.18;44.38;99954.36;102570;278;95057;-63
2023/06/17 09:42:20;;;;;;;5.20;4.80;;;;;;;27.69;44.69;99953.86;102586;278;95616;-63
2023/06/17 09:44:54;;;;;;;5.00;4.50;;;;;;;27.46;45.38;99957.44;102586;278;119756;-63
2023/06/17 09:47:37;;;;;;;5.90;5.30;;;;;;;27.90;46.19;99953.92;102554;278;105463;-62
2023/06/17 09:50:12;;;;;;;4.90;4.50;;;;;;;28.42;45.53;99953.85;102512;278;114626;-65
2023/06/17 09:52:52;;;;;;;6.10;5.50;;;;;;;28.46;44.43;99952.20;102556;278;95409;-64
2023/06/17 09:55:27;;;;;;;5.90;5.50;;;;;;;28.17;44.08;99953.39;102412;278;97308;-64
2023/06/17 09:58:01;;;;;;;6.00;5.40;;;;;;;27.87;44.87;99950.80;102524;278;119936;-64
2023/06/17 10:00:45;;;;;;;5.10;4.70;;;;;;;27.56;44.30;99956.86;102547;278;104678;-61
2023/06/17 10:03:26;;;;;;;5.80;5.30;;;;;;;27.28;44.35;99959.64;102500;278;114479;-59
2023/06/17 10:06:10;;;;;;;5.70;5.20;;;;;;;27.34;44.68;99953.13;102532;278;94499;-61
2023/06/17 10:08:44;;;;;;;5.70;5.20;;;;;;;27.72;45.00;99956.52;102526;278;98147;-61
2023/06/17 10:11:25;;;;;;;5.70;5.20;;;;;;;27.51;44.24;99954.19;102516;278;121699;-62
2023/06/17 10:14:09;;;;;;;5.90;5.40;;;;;;;27.22;44.62;99956.89;102545;278;105216;-67
2023/06/17 10:16:48;;;;;;;5.90;5.30;;;;;;;26.72;45.46;99954.52;102478;278;116661;-68
2023/06/17 10:19:24;;;;;;;6.20;5.60;;;;;;;26.11;46.09;99956.05;102581;278;94834;-69
2023/06/17 10:22:00;;;;;;;6.20;5.70;;;;;;;25.76;46.60;99964.41;102646;278;97787;-69
2023/06/17 10:24:34;;;;;;;7.40;6.70;;;;;;;25.41;47.53;99964.29;102634;278;120597;-65
2023/06/17 10:27:09;;;;;;;6.30;5.80;;;;;;;25.08;48.44;99961.67;102652;278;105841;-66
2023/06/17 10:29:43;;;;;;;6.90;6.30;;;;;;;24.85;48.88;99963.45;102562;278;113490;-65
2023/06/17 10:32:22;;;;;;;7.30;6.60;;;;;;;24.70;49.31;99963.58;102591;278;93974;-65
2023/06/17 10:35:13;;;;;;;7.40;6.80;;;;;;;24.55;49.67;99963.23;102569;278;97359;-64
2023/06/17 10:37:48;;;;;;;7.90;7.20;;;;;;;24.41;50.00;99963.10;102576;278;118999;-65
2023/06/17 10:40:26;;;;;;;8.10;7.40;;;;;;;24.25;50.11;99973.58;102530;278;104072;-67
2023/06/17 10:43:18;;;;;;;7.60;7.00;;;;;;;24.06;50.52;99979.50;102552;275;113736;-67
2023/06/17 10:45:55;;;;;;;8.10;7.40;;;;;;;23.89;50.98;99977.14;102531;278;94679;-63
2023/06/17 10:48:33;;;;;;;8.40;7.70;;;;;;;23.78;51.62;99977.94;102478;278;98418;-63
2023/06/17 10:51:14;;;;;;;8.20;7.50;;;;;;;23.70;52.19;99980.73;102514;278;119786;-62
2023/06/17 10:54:00;;;;;;;8.80;8.00;;;;;;;23.73;52.68;99977.48;102592;278;104872;-63
2023/06/17 10:56:50;;;;;;;8.00;7.30;;;;;;;23.77;53.03;99976.52;102489;278;114785;-62
2023/06/17 10:59:30;;;;;;;8.30;7.60;;;;;;;23.90;53.39;99977.23;102575;278;93072;-63
2023/06/17 11:02:06;;;;;;;8.20;7.50;;;;;;;24.05;52.98;99975.09;102452;278;99834;-62
2023/06/17 11:04:41;;;;;;;8.30;7.50;;;;;;;24.14;52.60;99972.95;102457;279;122316;-64
2023/06/17 11:07:36;;;;;;;8.10;7.50;;;;;;;24.41;52.54;99969.11;102493;278;103156;-62
2023/06/17 11:10:13;;;;;;;8.20;7.50;;;;;;;24.78;52.85;99969.85;102422;278;113214;-62
2023/06/17 11:12:50;;;;;;;7.70;7.00;;;;;;;24.95;52.16;99971.84;102514;278;92698;-61
2023/06/17 11:15:25;;;;;;;8.00;7.30;;;;;;;25.01;52.23;99971.61;102405;278;96428;-61
2023/06/17 11:18:07;;;;;;;8.20;7.50;;;;;;;25.12;52.17;99973.91;100941;278;2263597;-62
2023/06/17 11:20:42;;;;;;;7.60;6.90;;;;;;;25.09;51.65;99972.10;102413;279;104458;-61
2023/06/17 11:23:18;;;;;;;7.80;7.20;;;;;;;25.15;51.98;99971.70;102546;278;112901;-60
2023/06/17 11:26:01;;;;;;;8.20;7.30;;;;;;;25.31;51.87;99971.71;102506;278;92471;-62
2023/06/17 11:28:39;;;;;;;7.40;6.80;;;;;;;25.53;51.47;99969.52;102508;278;98158;-62
2023/06/17 11:31:14;;;;;;;7.60;7.00;;;;;;;25.62;50.77;99967.56;102550;278;120732;-65
2023/06/17 11:33:56;;;;;;;7.60;7.00;;;;;;;25.87;50.81;99964.97;102536;278;104972;-67
2023/06/17 11:36:28;;;;;;;7.10;6.40;;;;;;;26.06;50.30;99960.90;102544;278;115241;-67
2023/06/17 11:39:04;;;;;;;7.50;6.90;;;;;;;26.18;50.17;99958.12;102560;267;93187;-69
2023/06/17 11:41:39;;;;;;;7.90;7.20;;;;;;;26.41;49.66;99956.84;102591;278;98249;-70
2023/06/17 11:44:11;;;;;;;7.00;6.30;;;;;;;26.54;48.91;99954.92;102605;278;121352;-69
2023/06/17 11:46:56;;;;;;;7.00;6.30;;;;;;;26.56;48.71;99954.35;102712;278;104460;-69
2023/06/17 11:49:32;;;;;;;6.40;5.90;;;;;;;26.54;48.45;99956.16;102605;278;114295;-69
2023/06/17 11:52:09;;;;;;;6.10;5.60;;;;;;;26.57;47.83;99955.44;102578;278;94953;-70
2023/06/17 11:54:49;;;;;;;5.90;5.10;;;;;;;26.72;47.67;99953.31;102618;278;97037;-68
2023/06/17 11:57:24;;;;;;;6.00;5.40;;;;;;;26.86;47.65;99949.24;102610;278;119909;-68
2023/06/17 12:00:09;;;;;;;6.00;5.40;;;;;;;27.06;46.98;99946.63;102554;279;104268;-69
2023/06/17 12:02:47;;;;;;;6.30;5.80;;;;;;;27.16;46.68;99948.40;102546;278;115662;-66
2023/06/17 12:05:21;;;;;;;6.40;5.80;;;;;;;27.24;46.56;99946.35;102583;278;95148;-66
2023/06/17 12:08:01;;;;;;;7.50;6.70;;;;;;;27.34;46.43;99945.30;102557;278;96295;-70
2023/06/17 12:10:40;;;;;;;7.30;6.70;;;;;;;27.61;46.53;99943.16;102546;278;119186;-70